createdAt,value
2017-09-05T00:01:18.751Z,101734
2017-09-05T00:03:46.988Z,101730
2017-09-05T00:06:15.236Z,101736
2017-09-05T00:11:52.803Z,101725
2017-09-05T00:14:25.593Z,101732
2017-09-05T00:16:59.246Z,101725
2017-09-05T00:19:28.249Z,101726
2017-09-05T00:21:59.978Z,101736
2017-09-05T00:24:28.182Z,101739
2017-09-05T00:26:57.598Z,101731
2017-09-05T00:29:25.862Z,101729
2017-09-05T00:31:54.080Z,101732
2017-09-05T00:34:22.354Z,101731
2017-09-05T00:36:50.545Z,101733
2017-09-05T00:39:18.739Z,101732
2017-09-05T00:41:46.964Z,101731
2017-09-05T00:44:15.168Z,101728
2017-09-05T00:46:43.438Z,101731
2017-09-05T00:49:11.664Z,101725
2017-09-05T00:51:39.889Z,101724
2017-09-05T00:54:08.112Z,101721
2017-09-05T00:56:36.312Z,101721
2017-09-05T00:59:04.505Z,101715
2017-09-05T01:01:32.770Z,101713
2017-09-05T01:04:01.011Z,101708
2017-09-05T01:06:29.195Z,101713
2017-09-05T01:08:57.401Z,101712
2017-09-05T01:11:25.641Z,101718
2017-09-05T01:13:53.858Z,101720
2017-09-05T01:16:22.112Z,101727
2017-09-05T01:18:50.360Z,101722
2017-09-05T01:21:18.577Z,101720
2017-09-05T01:23:46.799Z,101717
2017-09-05T01:26:15.029Z,101721
2017-09-05T01:28:43.290Z,101724
2017-09-05T01:31:12.212Z,101720
2017-09-05T01:33:40.417Z,101719
2017-09-05T01:36:08.692Z,101722
2017-09-05T01:38:36.908Z,101730
2017-09-05T01:41:05.116Z,101720
2017-09-05T01:43:33.315Z,101726
2017-09-05T01:46:01.506Z,101725
2017-09-05T01:48:29.717Z,101718
2017-09-05T01:50:57.930Z,101709
2017-09-05T01:53:26.201Z,101716
2017-09-05T01:55:54.870Z,101711
2017-09-05T01:58:23.071Z,101715
2017-09-05T02:00:51.300Z,101708
2017-09-05T02:03:20.572Z,101702
2017-09-05T02:05:48.756Z,101711
2017-09-05T02:08:16.989Z,101709
2017-09-05T02:10:46.186Z,101713
2017-09-05T02:13:14.739Z,101715
2017-09-05T02:15:42.961Z,101707
2017-09-05T02:18:11.183Z,101714
2017-09-05T02:20:39.395Z,101718
2017-09-05T02:23:07.613Z,101710
2017-09-05T02:25:35.887Z,101707
2017-09-05T02:28:04.095Z,101705
2017-09-05T02:30:32.322Z,101701
2017-09-05T02:33:01.168Z,101715
2017-09-05T02:35:29.386Z,101711
2017-09-05T02:37:57.637Z,101704
2017-09-05T02:40:25.874Z,101698
2017-09-05T02:42:54.066Z,101714
2017-09-05T02:45:22.655Z,101700
2017-09-05T02:47:50.839Z,101700
2017-09-05T02:50:19.013Z,101696
2017-09-05T02:52:47.209Z,101700
2017-09-05T02:55:15.503Z,101698
2017-09-05T02:57:44.132Z,101691
2017-09-05T03:00:12.402Z,101690
2017-09-05T03:02:40.629Z,101689
2017-09-05T03:05:09.678Z,101686
2017-09-05T03:07:37.893Z,101690
2017-09-05T03:10:06.165Z,101687
2017-09-05T03:12:34.389Z,101690
2017-09-05T03:15:02.571Z,101695
2017-09-05T03:17:30.788Z,101693
2017-09-05T03:19:58.993Z,101688
2017-09-05T03:22:27.192Z,101683
2017-09-05T03:24:55.358Z,101683
2017-09-05T03:27:23.573Z,101689
2017-09-05T03:29:51.776Z,101685
2017-09-05T03:32:19.987Z,101680
2017-09-05T03:34:48.196Z,101676
2017-09-05T03:37:16.439Z,101675
2017-09-05T03:39:44.716Z,101676
2017-09-05T03:42:12.930Z,101676
2017-09-05T03:44:41.195Z,101681
2017-09-05T03:47:09.433Z,101674
2017-09-05T03:49:38.424Z,101688
2017-09-05T03:52:06.798Z,101684
2017-09-05T03:54:35.117Z,101694
2017-09-05T03:57:03.316Z,101687
2017-09-05T03:59:32.012Z,101692
2017-09-05T04:02:00.250Z,101678
2017-09-05T04:04:28.429Z,101682
2017-09-05T04:06:56.612Z,101687
2017-09-05T04:09:24.839Z,101684
2017-09-05T04:11:53.065Z,101682
2017-09-05T04:14:21.326Z,101681
2017-09-05T04:16:49.616Z,101679
2017-09-05T04:19:17.862Z,101686
2017-09-05T04:21:46.118Z,101681
2017-09-05T04:24:14.352Z,101683
2017-09-05T04:26:42.567Z,101691
2017-09-05T04:29:10.893Z,101691
2017-09-05T04:31:39.104Z,101689
2017-09-05T04:34:07.330Z,101685
2017-09-05T04:36:35.956Z,101687
2017-09-05T04:39:04.209Z,101694
2017-09-05T04:41:32.480Z,101690
2017-09-05T04:44:00.718Z,101693
2017-09-05T04:46:28.929Z,101690
2017-09-05T04:48:57.530Z,101699
2017-09-05T04:51:25.747Z,101694
2017-09-05T04:53:54.048Z,101704
2017-09-05T04:56:22.332Z,101693
2017-09-05T04:58:50.679Z,101691
2017-09-05T05:01:19.168Z,101690
2017-09-05T05:03:47.400Z,101690
2017-09-05T05:06:15.615Z,101700
2017-09-05T05:08:43.888Z,101712
2017-09-05T05:11:12.102Z,101698
2017-09-05T05:13:40.355Z,101705
2017-09-05T05:16:08.570Z,101703
2017-09-05T05:18:36.843Z,101706
2017-09-05T05:21:05.101Z,101708
2017-09-05T05:23:33.313Z,101717
2017-09-05T05:26:01.521Z,101710
2017-09-05T05:28:29.763Z,101708
2017-09-05T05:30:58.016Z,101716
2017-09-05T05:33:26.287Z,101709
2017-09-05T05:35:55.298Z,101706
2017-09-05T05:38:23.554Z,101697
2017-09-05T05:40:52.443Z,101694
2017-09-05T05:43:20.667Z,101696
2017-09-05T05:45:48.929Z,101693
2017-09-05T05:48:17.130Z,101685
2017-09-05T05:50:45.371Z,101694
2017-09-05T05:53:13.678Z,101693
2017-09-05T05:55:41.897Z,101690
2017-09-05T05:58:10.155Z,101685
2017-09-05T06:00:38.388Z,101686
2017-09-05T06:03:06.631Z,101683
2017-09-05T06:05:40.076Z,101686
2017-09-05T06:08:09.316Z,101692
2017-09-05T06:10:39.015Z,101691
2017-09-05T06:13:08.416Z,101685
2017-09-05T06:15:36.667Z,101690
2017-09-05T06:18:04.906Z,101687
2017-09-05T06:20:33.114Z,101687
2017-09-05T06:23:01.396Z,101685
2017-09-05T06:25:29.602Z,101682
2017-09-05T06:27:58.623Z,101686
2017-09-05T06:30:26.923Z,101685
2017-09-05T06:32:55.155Z,101690
2017-09-05T06:35:24.039Z,101694
2017-09-05T06:37:52.247Z,101691
2017-09-05T06:40:21.358Z,101682
2017-09-05T06:42:49.688Z,101688
2017-09-05T06:45:18.982Z,101689
2017-09-05T06:47:47.459Z,101686
2017-09-05T06:50:15.736Z,101689
2017-09-05T06:52:44.104Z,101689
2017-09-05T06:55:12.427Z,101685
2017-09-05T06:57:40.658Z,101682
2017-09-05T07:00:08.877Z,101687
2017-09-05T07:02:37.108Z,101694
2017-09-05T07:05:05.473Z,101688
2017-09-05T07:07:34.587Z,101692
2017-09-05T07:10:02.823Z,101690
2017-09-05T07:12:31.561Z,101696
2017-09-05T07:14:59.785Z,101697
2017-09-05T07:17:28.043Z,101687
2017-09-05T07:19:56.233Z,101691
2017-09-05T07:22:24.490Z,101690
2017-09-05T07:24:52.745Z,101688
2017-09-05T07:27:21.131Z,101692
2017-09-05T07:29:49.360Z,101682
2017-09-05T07:32:18.468Z,101681
2017-09-05T07:34:46.677Z,101685
2017-09-05T07:37:14.870Z,101682
2017-09-05T07:39:43.136Z,101684
2017-09-05T07:42:11.518Z,101695
2017-09-05T07:44:39.720Z,101694
2017-09-05T07:47:07.924Z,101691
2017-09-05T07:49:36.482Z,101688
2017-09-05T07:52:04.726Z,101688
2017-09-05T07:54:32.969Z,101693
2017-09-05T07:57:01.165Z,101690
2017-09-05T07:59:29.429Z,101704
2017-09-05T08:01:57.694Z,101702
2017-09-05T08:04:25.906Z,101696
2017-09-05T08:06:54.138Z,101704
2017-09-05T08:09:22.323Z,101703
2017-09-05T08:11:50.555Z,101704
2017-09-05T08:14:18.781Z,101705
2017-09-05T08:16:47.036Z,101698
2017-09-05T08:19:15.248Z,101684
2017-09-05T08:21:43.527Z,101692
2017-09-05T08:24:11.772Z,101689
2017-09-05T08:26:40.825Z,101680
2017-09-05T08:29:09.044Z,101686
2017-09-05T08:31:37.277Z,101684
2017-09-05T08:34:05.544Z,101676
2017-09-05T08:36:33.798Z,101687
2017-09-05T08:39:02.041Z,101681
2017-09-05T08:41:30.655Z,101688
2017-09-05T08:44:00.335Z,101687
2017-09-05T08:46:28.603Z,101686
2017-09-05T08:48:56.893Z,101681
2017-09-05T08:51:25.151Z,101676
2017-09-05T08:53:53.408Z,101675
2017-09-05T08:56:21.662Z,101679
2017-09-05T08:58:50.099Z,101675
2017-09-05T09:01:18.358Z,101682
2017-09-05T09:03:46.630Z,101676
2017-09-05T09:06:14.898Z,101674
2017-09-05T09:08:43.091Z,101677
2017-09-05T09:11:11.322Z,101676
2017-09-05T09:13:39.658Z,101681
2017-09-05T09:16:07.892Z,101675
2017-09-05T09:18:36.188Z,101680
2017-09-05T09:21:04.437Z,101676
2017-09-05T09:23:32.660Z,101683
2017-09-05T09:26:01.342Z,101679
2017-09-05T09:28:30.378Z,101670
2017-09-05T09:30:59.351Z,101675
2017-09-05T09:33:27.700Z,101667
2017-09-05T09:35:55.929Z,101659
2017-09-05T09:38:24.204Z,101658
2017-09-05T09:40:53.495Z,101656
2017-09-05T09:43:21.732Z,101654
2017-09-05T09:45:50.840Z,101649
2017-09-05T09:48:19.851Z,101653
2017-09-05T09:50:48.057Z,101653
2017-09-05T09:53:17.076Z,101662
2017-09-05T09:55:45.329Z,101659
2017-09-05T09:58:13.714Z,101649
2017-09-05T10:00:41.971Z,101648
2017-09-05T10:03:10.250Z,101638
2017-09-05T10:05:38.476Z,101641
2017-09-05T10:08:06.700Z,101643
2017-09-05T10:10:34.965Z,101632
2017-09-05T10:13:03.235Z,101633
2017-09-05T10:15:31.536Z,101637
2017-09-05T10:17:59.754Z,101645
2017-09-05T10:20:29.141Z,101643
2017-09-05T10:22:57.366Z,101636
2017-09-05T10:25:25.614Z,101634
2017-09-05T10:27:53.893Z,101640
2017-09-05T10:30:22.120Z,101641
2017-09-05T10:32:50.416Z,101635
2017-09-05T10:35:18.637Z,101643
2017-09-05T10:37:46.923Z,101628
2017-09-05T10:40:15.149Z,101626
2017-09-05T10:42:43.490Z,101621
2017-09-05T10:45:11.925Z,101632
2017-09-05T10:47:40.251Z,101628
2017-09-05T10:50:08.523Z,101623
2017-09-05T10:52:36.833Z,101620
2017-09-05T10:55:06.805Z,101625
2017-09-05T10:57:36.811Z,101620
2017-09-05T11:00:05.085Z,101624
2017-09-05T11:02:33.987Z,101625
2017-09-05T11:05:02.813Z,101623
2017-09-05T11:07:34.638Z,101624
2017-09-05T11:10:02.908Z,101628
2017-09-05T11:12:31.192Z,101613
2017-09-05T11:14:59.443Z,101617
2017-09-05T11:17:27.727Z,101619
2017-09-05T11:19:56.875Z,101617
2017-09-05T11:22:26.073Z,101606
2017-09-05T11:24:54.502Z,101607
2017-09-05T11:27:23.116Z,101603
2017-09-05T11:29:51.325Z,101591
2017-09-05T11:32:19.586Z,101596
2017-09-05T11:34:47.773Z,101596
2017-09-05T11:37:16.106Z,101603
2017-09-05T11:39:46.060Z,101593
2017-09-05T11:42:14.313Z,101593
2017-09-05T11:44:43.808Z,101597
2017-09-05T11:47:12.150Z,101590
2017-09-05T11:49:40.383Z,101591
2017-09-05T11:52:08.621Z,101593
2017-09-05T11:54:40.171Z,101593
2017-09-05T11:57:10.420Z,101587
2017-09-05T11:59:38.749Z,101586
2017-09-05T12:02:10.399Z,101594
2017-09-05T12:04:38.683Z,101593
2017-09-05T12:07:07.023Z,101590
2017-09-05T12:09:35.239Z,101599
2017-09-05T12:12:03.439Z,101592
2017-09-05T12:14:31.898Z,101576
2017-09-05T12:17:00.158Z,101582
2017-09-05T12:19:28.417Z,101586
2017-09-05T12:22:01.145Z,101582
2017-09-05T12:24:31.036Z,101572
2017-09-05T12:26:59.300Z,101571
2017-09-05T12:29:29.983Z,101566
2017-09-05T12:31:58.211Z,101567
2017-09-05T12:34:26.611Z,101565
2017-09-05T12:53:10.214Z,101570
2017-09-05T12:55:41.614Z,101554
2017-09-05T12:58:09.966Z,101559
2017-09-05T13:00:39.090Z,101555
2017-09-05T13:03:07.304Z,101553
2017-09-05T13:05:35.688Z,101551
2017-09-05T13:08:03.930Z,101553
2017-09-05T13:10:32.197Z,101544
2017-09-05T13:13:01.305Z,101539
2017-09-05T13:15:29.566Z,101549
2017-09-05T13:17:57.886Z,101541
2017-09-05T13:20:26.129Z,101542
2017-09-05T13:22:54.698Z,101538
2017-09-05T13:25:24.005Z,101526
2017-09-05T13:27:52.217Z,101531
2017-09-05T13:30:20.467Z,101529
2017-09-05T13:32:49.261Z,101528
2017-09-05T13:35:18.083Z,101526
2017-09-05T13:37:46.319Z,101530
2017-09-05T13:40:14.602Z,101531
2017-09-05T13:42:42.894Z,101524
2017-09-05T13:45:15.660Z,101527
2017-09-05T13:47:44.720Z,101527
2017-09-05T13:50:12.974Z,101525
2017-09-05T13:52:41.210Z,101524
2017-09-05T13:55:09.412Z,101519
2017-09-05T13:57:37.686Z,101523
2017-09-05T14:00:18.618Z,101513
2017-09-05T14:02:47.752Z,101517
2017-09-05T14:05:15.977Z,101518
2017-09-05T14:07:46.373Z,101520
2017-09-05T14:10:14.670Z,101515
2017-09-05T14:12:47.369Z,101515
2017-09-05T14:15:15.651Z,101516
2017-09-05T14:17:43.847Z,101512
2017-09-05T14:20:12.108Z,101519
2017-09-05T14:22:40.327Z,101513
2017-09-05T14:25:08.547Z,101516
2017-09-05T14:27:36.760Z,101504
2017-09-05T14:30:06.676Z,101515
2017-09-05T14:32:45.647Z,101511
2017-09-05T14:35:18.071Z,101517
2017-09-05T14:37:46.488Z,101516
2017-09-05T14:40:14.796Z,101512
2017-09-05T14:42:43.165Z,101505
2017-09-05T14:45:14.924Z,101502
2017-09-05T14:47:43.363Z,101506
2017-09-05T14:50:14.704Z,101513
2017-09-05T14:52:44.754Z,101504
2017-09-05T14:55:13.132Z,101512
2017-09-05T14:57:42.186Z,101512
2017-09-05T15:00:11.319Z,101521
2017-09-05T15:02:41.742Z,101509
2017-09-05T15:05:13.388Z,101507
2017-09-05T15:07:43.554Z,101504
2017-09-05T15:10:21.386Z,101503
2017-09-05T15:12:51.220Z,101505
2017-09-05T15:15:43.229Z,101500
2017-09-05T15:18:11.508Z,101498
2017-09-05T15:20:40.085Z,101501
2017-09-05T15:23:08.463Z,101490
2017-09-05T15:25:43.504Z,101490
2017-09-05T15:46:32.222Z,101484
2017-09-05T15:49:16.288Z,101477
2017-09-05T15:51:44.736Z,101485
2017-09-05T15:54:13.932Z,101485
2017-09-05T15:56:42.323Z,101473
2017-09-05T15:59:12.637Z,101486
2017-09-05T16:01:40.893Z,101487
2017-09-05T16:04:10.229Z,101484
2017-09-05T16:06:38.490Z,101484
2017-09-05T16:09:07.508Z,101486
2017-09-05T16:11:35.784Z,101479
2017-09-05T16:14:05.843Z,101488
2017-09-05T16:16:34.150Z,101479
2017-09-05T16:19:02.769Z,101478
2017-09-05T16:21:31.079Z,101486
2017-09-05T16:23:59.379Z,101483
2017-09-05T16:26:28.617Z,101482
2017-09-05T16:28:57.661Z,101470
2017-09-05T16:31:28.525Z,101477
2017-09-05T16:33:57.929Z,101480
2017-09-05T16:36:26.265Z,101476
2017-09-05T16:38:54.568Z,101481
2017-09-05T16:41:26.824Z,101472
2017-09-05T16:43:56.700Z,101474
2017-09-05T16:50:00.640Z,101473
2017-09-05T17:06:50.604Z,101463
2017-09-05T17:16:12.785Z,101449
2017-09-05T17:18:41.215Z,101451
2017-09-05T17:21:09.643Z,101440
2017-09-05T17:23:39.263Z,101441
2017-09-05T17:26:08.349Z,101434
2017-09-05T17:28:37.434Z,101432
2017-09-05T17:31:06.686Z,101431
2017-09-05T17:33:34.958Z,101435
2017-09-05T17:36:03.246Z,101445
2017-09-05T17:38:32.551Z,101444
2017-09-05T17:41:00.785Z,101442
2017-09-05T17:43:29.113Z,101443
2017-09-05T17:45:58.093Z,101449
2017-09-05T17:48:26.383Z,101442
2017-09-05T17:50:55.532Z,101448
2017-09-05T17:53:23.855Z,101436
2017-09-05T17:55:52.112Z,101442
2017-09-05T17:58:20.763Z,101445
2017-09-05T18:13:49.096Z,101438
2017-09-05T18:16:17.372Z,101447
2017-09-05T18:18:51.787Z,101442
2017-09-05T18:21:22.078Z,101443
2017-09-05T18:23:51.606Z,101452
2017-09-05T18:26:20.001Z,101441
2017-09-05T18:28:48.866Z,101439
2017-09-05T18:31:17.201Z,101450
2017-09-05T18:33:45.518Z,101446
2017-09-05T18:36:13.864Z,101449
2017-09-05T18:38:43.025Z,101439
2017-09-05T18:41:11.407Z,101439
2017-09-05T18:43:39.735Z,101443
2017-09-05T18:46:08.106Z,101444
2017-09-05T18:48:36.426Z,101445
2017-09-05T18:51:04.767Z,101434
2017-09-05T18:53:33.116Z,101426
2017-09-05T18:56:01.509Z,101443
2017-09-05T18:58:29.891Z,101437
2017-09-05T19:00:58.574Z,101435
2017-09-05T19:03:26.928Z,101429
2017-09-05T19:05:55.284Z,101434
2017-09-05T19:08:23.617Z,101420
2017-09-05T19:10:52.380Z,101433
2017-09-05T19:13:20.722Z,101425
2017-09-05T19:15:49.830Z,101426
2017-09-05T19:18:18.234Z,101423
2017-09-05T19:20:46.549Z,101422
2017-09-05T19:23:14.913Z,101428
2017-09-05T19:25:43.283Z,101419
2017-09-05T19:28:12.637Z,101422
2017-09-05T19:30:41.814Z,101417
2017-09-05T19:33:20.215Z,101401
2017-09-05T19:35:55.810Z,101395
2017-09-05T19:38:28.340Z,101397
2017-09-05T19:40:56.728Z,101404
2017-09-05T19:43:25.194Z,101402
2017-09-05T19:45:53.583Z,101399
2017-09-05T19:48:22.769Z,101397
2017-09-05T19:50:51.497Z,101400
2017-09-05T19:53:19.937Z,101405
2017-09-05T19:55:49.527Z,101416
2017-09-05T19:58:17.951Z,101425
2017-09-05T20:00:46.371Z,101414
2017-09-05T20:03:15.141Z,101409
2017-09-05T20:05:43.477Z,101417
2017-09-05T20:08:11.844Z,101427
2017-09-05T20:10:40.207Z,101413
2017-09-05T20:13:08.484Z,101411
2017-09-05T20:15:36.782Z,101402
2017-09-05T20:18:05.076Z,101407
2017-09-05T20:20:33.494Z,101404
2017-09-05T20:23:02.584Z,101399
2017-09-05T20:25:30.849Z,101396
2017-09-05T20:28:00.798Z,101396
2017-09-05T21:09:20.714Z,101368
2017-09-05T21:11:51.150Z,101364
2017-09-05T21:14:23.088Z,101357
2017-09-05T21:17:01.046Z,101359
2017-09-05T21:19:30.488Z,101356
2017-09-05T21:26:25.524Z,101347
2017-09-05T21:28:59.107Z,101337
2017-09-05T21:34:15.545Z,101338
2017-09-05T21:36:47.137Z,101339
2017-09-05T21:39:24.556Z,101334
2017-09-05T21:41:58.477Z,101333
2017-09-05T21:44:37.319Z,101335
2017-09-05T21:47:15.347Z,101334
2017-09-05T21:53:39.142Z,101328
2017-09-05T21:56:15.290Z,101326
2017-09-05T21:58:45.559Z,101321
2017-09-05T22:01:31.091Z,101313
2017-09-05T22:07:01.966Z,101316
2017-09-05T22:09:56.782Z,101302
2017-09-05T22:48:34.451Z,101285
